createdAt,value
2022-08-22T00:01:06.132Z,1.35
2022-08-22T00:03:02.739Z,0.93
2022-08-22T00:03:56.385Z,0.95
2022-08-22T00:06:30.339Z,1.08
2022-08-22T00:09:12.677Z,1.42
2022-08-22T00:12:04.170Z,1.90
2022-08-22T00:14:34.995Z,1.10
2022-08-22T00:17:22.305Z,1.15
2022-08-22T00:19:54.190Z,1.15
2022-08-22T00:22:42.647Z,1.08
2022-08-22T00:25:24.860Z,1.05
2022-08-22T00:28:02.073Z,1.15
2022-08-22T00:30:30.242Z,1.85
2022-08-22T00:33:02.397Z,1.70
2022-08-22T00:35:36.281Z,1.27
2022-08-22T00:38:19.714Z,1.30
2022-08-22T00:41:12.986Z,1.40
2022-08-22T00:43:51.993Z,1.50
2022-08-22T00:46:41.998Z,2.20
2022-08-22T00:49:50.095Z,1.33
2022-08-22T00:52:39.919Z,1.50
2022-08-22T00:55:12.367Z,1.83
2022-08-22T00:58:08.584Z,1.40
2022-08-22T01:03:24.208Z,0.70
2022-08-22T01:06:10.545Z,1.20
2022-08-22T01:09:09.435Z,1.60
2022-08-22T01:11:36.091Z,1.35
2022-08-22T01:14:13.644Z,1.42
2022-08-22T01:17:29.487Z,1.60
2022-08-22T01:20:15.416Z,1.45
2022-08-22T01:23:13.206Z,1.63
2022-08-22T01:26:19.659Z,1.80
2022-08-22T01:29:28.209Z,1.58
2022-08-22T01:32:27.257Z,1.67
2022-08-22T01:35:01.956Z,1.52
2022-08-22T01:37:47.885Z,1.80
2022-08-22T01:40:33.223Z,1.67
2022-08-22T01:43:43.842Z,1.65
2022-08-22T01:46:50.326Z,1.63
2022-08-22T01:49:29.581Z,1.60
2022-08-22T01:52:15.461Z,2.17
2022-08-22T01:54:58.898Z,1.75
2022-08-22T01:57:26.568Z,1.35
2022-08-22T01:59:58.092Z,1.83
2022-08-22T02:02:47.840Z,1.65
2022-08-22T02:05:48.285Z,1.20
2022-08-22T02:08:40.355Z,1.77
2022-08-22T02:11:30.212Z,1.20
2022-08-22T02:14:25.021Z,1.50
2022-08-22T02:17:22.101Z,2.00
2022-08-22T02:20:22.892Z,1.58
2022-08-22T02:23:07.143Z,1.40
2022-08-22T02:25:57.344Z,1.90
2022-08-22T02:28:57.086Z,1.67
2022-08-22T02:31:36.969Z,1.60
2022-08-22T02:34:27.857Z,1.38
2022-08-22T02:37:17.962Z,1.55
2022-08-22T02:39:53.554Z,1.70
2022-08-22T02:43:02.717Z,1.60
2022-08-22T02:46:03.847Z,2.08
2022-08-22T02:48:38.761Z,1.60
2022-08-22T02:51:15.144Z,1.50
2022-08-22T02:53:48.224Z,1.25
2022-08-22T02:56:19.468Z,1.48
2022-08-22T02:59:00.156Z,1.38
2022-08-22T03:01:29.797Z,1.52
2022-08-22T03:04:16.458Z,1.92
2022-08-22T03:06:59.243Z,1.60
2022-08-22T03:09:31.771Z,1.50
2022-08-22T03:12:11.311Z,1.10
2022-08-22T03:14:47.801Z,1.30
2022-08-22T03:17:23.841Z,1.30
2022-08-22T03:20:04.204Z,1.80
2022-08-22T03:22:45.671Z,1.40
2022-08-22T03:25:20.971Z,1.35
2022-08-22T03:28:00.546Z,1.33
2022-08-22T03:30:44.335Z,1.30
2022-08-22T03:33:22.731Z,1.65
2022-08-22T03:35:49.847Z,1.58
2022-08-22T03:38:29.977Z,1.40
2022-08-22T03:41:35.400Z,1.10
2022-08-22T03:44:09.177Z,1.33
2022-08-22T03:46:51.024Z,1.45
2022-08-22T03:49:32.521Z,1.67
2022-08-22T03:52:21.646Z,1.08
2022-08-22T03:55:06.300Z,1.38
2022-08-22T03:58:27.454Z,1.92
2022-08-22T04:01:16.358Z,2.03
2022-08-22T04:04:14.497Z,1.88
2022-08-22T04:07:31.594Z,1.60
2022-08-22T04:10:27.143Z,1.80
2022-08-22T04:13:02.705Z,1.50
2022-08-22T04:18:34.855Z,1.15
2022-08-22T04:21:16.476Z,1.98
2022-08-22T04:23:57.597Z,2.33
2022-08-22T04:26:44.987Z,1.75
2022-08-22T04:29:26.783Z,2.30
2022-08-22T04:32:02.675Z,1.65
2022-08-22T04:34:37.650Z,1.80
2022-08-22T04:37:12.692Z,2.00
2022-08-22T04:39:51.466Z,2.20
2022-08-22T04:42:33.515Z,1.80
2022-08-22T04:45:17.157Z,1.42
2022-08-22T04:47:56.512Z,1.98
2022-08-22T04:50:29.646Z,2.10
2022-08-22T04:53:23.351Z,1.80
2022-08-22T04:56:20.901Z,2.53
2022-08-22T04:58:59.590Z,1.45
2022-08-22T05:01:41.641Z,2.15
2022-08-22T05:04:18.492Z,2.00
2022-08-22T05:06:50.488Z,2.08
2022-08-22T05:09:22.257Z,1.83
2022-08-22T05:11:52.789Z,2.00
2022-08-22T05:14:28.005Z,1.60
2022-08-22T05:16:57.566Z,1.85
2022-08-22T05:19:34.646Z,1.85
2022-08-22T05:22:03.139Z,1.95
2022-08-22T05:24:38.560Z,1.83
2022-08-22T05:27:11.713Z,1.90
2022-08-22T05:29:42.719Z,1.90
2022-08-22T05:32:20.976Z,1.77
2022-08-22T05:34:51.389Z,2.10
2022-08-22T05:37:24.341Z,2.05
2022-08-22T05:40:00.651Z,2.10
2022-08-22T05:42:31.957Z,1.88
2022-08-22T05:45:01.812Z,2.17
2022-08-22T05:47:42.158Z,2.38
2022-08-22T05:50:12.729Z,2.28
2022-08-22T05:52:48.388Z,2.00
2022-08-22T05:55:27.828Z,2.40
2022-08-22T05:58:15.902Z,2.13
2022-08-22T06:00:46.081Z,2.08
2022-08-22T06:03:23.037Z,2.42
2022-08-22T06:05:53.709Z,2.95
2022-08-22T06:08:23.402Z,2.30
2022-08-22T06:10:55.465Z,2.42
2022-08-22T06:13:41.567Z,2.65
2022-08-22T06:16:30.614Z,2.47
2022-08-22T06:18:57.995Z,2.65
2022-08-22T06:21:37.651Z,2.22
2022-08-22T06:24:12.966Z,2.60
2022-08-22T06:26:49.009Z,2.20
2022-08-22T06:29:37.614Z,2.88
2022-08-22T06:32:14.099Z,2.53
2022-08-22T06:34:43.988Z,2.92
2022-08-22T06:37:18.039Z,2.67
2022-08-22T06:39:49.163Z,2.65
2022-08-22T06:42:29.441Z,2.92
2022-08-22T06:45:05.716Z,3.45
2022-08-22T06:47:57.109Z,2.70
2022-08-22T06:50:33.872Z,2.85
2022-08-22T06:53:08.189Z,2.67
2022-08-22T06:55:39.149Z,3.80
2022-08-22T06:58:11.728Z,2.85
2022-08-22T07:00:42.232Z,3.30
2022-08-22T07:03:20.290Z,2.85
2022-08-22T07:05:47.048Z,2.85
2022-08-22T07:08:18.866Z,3.67
2022-08-22T07:11:08.153Z,3.53
2022-08-22T07:13:39.354Z,3.55
2022-08-22T07:16:08.616Z,3.42
2022-08-22T07:18:47.538Z,3.78
2022-08-22T07:21:27.846Z,3.60
2022-08-22T07:23:56.736Z,3.45
2022-08-22T07:26:54.340Z,3.45
2022-08-22T07:29:34.643Z,3.45
2022-08-22T07:32:13.407Z,3.83
2022-08-22T07:35:01.873Z,3.08
2022-08-22T07:38:13.825Z,3.83
2022-08-22T07:40:46.126Z,3.78
2022-08-22T07:43:38.002Z,3.03
2022-08-22T07:46:19.501Z,3.45
2022-08-22T07:49:15.559Z,3.60
2022-08-22T07:51:54.243Z,2.80
2022-08-22T07:54:33.476Z,3.63
2022-08-22T07:57:07.865Z,4.22
2022-08-22T07:59:38.711Z,3.78
2022-08-22T08:02:10.966Z,3.90
2022-08-22T08:04:40.688Z,3.95
2022-08-22T08:07:10.640Z,4.18
2022-08-22T08:09:42.952Z,4.13
2022-08-22T08:12:12.028Z,3.75
2022-08-22T08:14:43.483Z,4.35
2022-08-22T08:17:28.780Z,3.55
2022-08-22T08:20:03.049Z,4.00
2022-08-22T08:22:30.668Z,3.80
2022-08-22T08:24:59.753Z,4.65
2022-08-22T08:27:50.387Z,4.38
2022-08-22T08:30:43.148Z,4.07
2022-08-22T08:33:25.396Z,4.03
2022-08-22T08:36:07.043Z,4.32
2022-08-22T08:38:48.440Z,4.03
2022-08-22T08:41:30.107Z,3.53
2022-08-22T08:44:17.021Z,3.15
2022-08-22T08:46:55.606Z,3.88
2022-08-22T08:50:02.884Z,3.50
2022-08-22T08:53:00.948Z,2.92
2022-08-22T08:55:45.908Z,2.50
2022-08-22T08:58:43.189Z,2.65
2022-08-22T09:01:14.010Z,2.50
2022-08-22T09:03:51.371Z,2.63
2022-08-22T09:06:37.623Z,2.20
2022-08-22T09:09:25.667Z,2.10
2022-08-22T09:12:07.668Z,2.35
2022-08-22T09:14:38.075Z,2.05
2022-08-22T09:17:40.496Z,2.10
2022-08-22T09:20:17.881Z,1.73
2022-08-22T09:23:05.262Z,1.50
2022-08-22T09:25:40.539Z,1.60
2022-08-22T09:28:45.395Z,1.67
2022-08-22T09:31:44.835Z,2.22
2022-08-22T09:34:24.101Z,1.60
2022-08-22T09:37:20.967Z,1.50
2022-08-22T09:39:57.406Z,2.00
2022-08-22T09:42:50.429Z,2.08
2022-08-22T09:45:47.909Z,1.60
2022-08-22T09:48:47.209Z,1.40
2022-08-22T09:51:34.466Z,1.98
2022-08-22T09:54:10.075Z,1.90
2022-08-22T09:56:54.645Z,1.33
2022-08-22T09:59:53.793Z,1.42
2022-08-22T10:02:34.467Z,1.73
2022-08-22T10:05:40.436Z,1.13
2022-08-22T10:08:13.738Z,1.20
2022-08-22T10:10:43.189Z,1.27
2022-08-22T10:13:37.677Z,1.75
2022-08-22T10:16:24.469Z,1.25
2022-08-22T10:19:18.020Z,1.42
2022-08-22T10:22:03.692Z,1.40
2022-08-22T10:24:51.705Z,0.70
2022-08-22T10:27:32.599Z,1.25
2022-08-22T10:30:10.466Z,1.40
2022-08-22T10:33:00.684Z,1.10
2022-08-22T10:35:33.630Z,1.30
2022-08-22T10:38:12.305Z,1.05
2022-08-22T10:40:56.854Z,1.92
2022-08-22T10:44:00.804Z,1.05
2022-08-22T10:46:42.255Z,1.02
2022-08-22T10:49:22.841Z,0.65
2022-08-22T10:52:19.767Z,1.10
2022-08-22T10:55:13.834Z,1.20
2022-08-22T10:58:17.361Z,0.90
2022-08-22T11:03:26.071Z,1.10
2022-08-22T11:05:59.362Z,1.30
2022-08-22T11:08:54.312Z,1.48
2022-08-22T11:11:39.335Z,1.05
2022-08-22T11:14:57.411Z,1.45
2022-08-22T11:17:53.938Z,1.52
2022-08-22T11:20:32.282Z,1.05
2022-08-22T11:23:45.411Z,1.27
2022-08-22T11:26:46.672Z,1.02
2022-08-22T11:29:39.654Z,1.40
2022-08-22T11:32:34.203Z,1.10
2022-08-22T11:35:19.263Z,1.05
2022-08-22T11:37:54.793Z,1.10
2022-08-22T11:40:51.086Z,0.90
2022-08-22T11:43:26.681Z,1.63
2022-08-22T11:45:58.093Z,1.20
2022-08-22T11:48:25.094Z,1.63
2022-08-22T11:50:54.792Z,1.27
2022-08-22T11:53:46.220Z,1.50
2022-08-22T11:56:23.548Z,1.13
2022-08-22T11:58:58.605Z,1.45
2022-08-22T12:01:37.291Z,1.15
2022-08-22T12:04:14.100Z,1.27
2022-08-22T12:06:46.029Z,2.05
2022-08-22T12:09:20.163Z,2.22
2022-08-22T12:12:08.790Z,1.23
2022-08-22T12:14:54.732Z,1.08
2022-08-22T12:20:36.208Z,0.80
2022-08-22T12:23:20.945Z,0.90
2022-08-22T12:26:16.391Z,1.10
2022-08-22T12:29:27.455Z,1.23
2022-08-22T12:32:22.796Z,0.82
2022-08-22T12:35:13.964Z,0.98
2022-08-22T12:37:54.229Z,1.35
2022-08-22T12:40:28.187Z,1.30
2022-08-22T12:43:13.153Z,1.15
2022-08-22T12:46:03.187Z,1.27
2022-08-22T12:49:07.792Z,1.50
2022-08-22T12:51:50.610Z,1.50
2022-08-22T12:54:50.692Z,1.15
2022-08-22T12:57:33.956Z,0.82
2022-08-22T13:00:22.976Z,1.20
2022-08-22T13:02:55.514Z,0.95
2022-08-22T13:05:28.476Z,1.10
2022-08-22T13:08:04.137Z,1.33
2022-08-22T13:10:34.517Z,1.50
2022-08-22T13:13:03.809Z,1.30
2022-08-22T13:15:54.085Z,1.17
2022-08-22T13:18:31.255Z,1.15
2022-08-22T13:21:03.824Z,1.38
2022-08-22T13:23:53.226Z,1.38
2022-08-22T13:26:26.958Z,1.30
2022-08-22T13:29:24.458Z,1.48
2022-08-22T13:31:56.244Z,1.30
2022-08-22T13:34:29.147Z,1.40
2022-08-22T13:37:01.618Z,1.20
2022-08-22T13:39:38.687Z,1.25
2022-08-22T13:42:07.577Z,1.30
2022-08-22T13:44:49.283Z,1.30
2022-08-22T13:47:19.489Z,1.48
2022-08-22T13:50:08.554Z,1.00
2022-08-22T13:52:52.538Z,1.10
2022-08-22T13:58:27.091Z,1.17
2022-08-22T14:01:16.149Z,1.08
2022-08-22T14:03:50.662Z,0.90
2022-08-22T14:06:35.505Z,1.20
2022-08-22T14:09:31.279Z,1.27
2022-08-22T14:12:11.806Z,1.35
2022-08-22T14:14:43.313Z,1.80
2022-08-22T14:17:22.827Z,1.55
2022-08-22T14:20:06.903Z,0.98
2022-08-22T14:22:40.572Z,1.23
2022-08-22T14:25:17.436Z,1.30
2022-08-22T14:27:58.965Z,1.40
2022-08-22T14:30:35.863Z,1.40
2022-08-22T14:35:52.732Z,1.10
2022-08-22T14:38:35.795Z,1.45
2022-08-22T14:41:24.551Z,1.55
2022-08-22T14:43:59.904Z,1.23
2022-08-22T14:46:55.715Z,1.10
2022-08-22T14:49:33.439Z,1.33
2022-08-22T14:52:06.869Z,0.90
2022-08-22T14:54:36.464Z,1.00
2022-08-22T14:57:10.388Z,1.08
2022-08-22T14:59:52.468Z,1.42
2022-08-22T15:02:21.814Z,1.08
2022-08-22T15:04:53.510Z,1.55
2022-08-22T15:07:31.065Z,1.20
2022-08-22T15:10:06.115Z,1.55
2022-08-22T15:12:35.601Z,1.17
2022-08-22T15:15:26.700Z,1.83
2022-08-22T15:17:53.638Z,1.35
2022-08-22T15:20:38.257Z,1.38
2022-08-22T15:23:21.831Z,1.55
2022-08-22T15:26:01.605Z,1.20
2022-08-22T15:28:52.355Z,1.35
2022-08-22T15:31:20.379Z,1.55
2022-08-22T15:33:48.475Z,1.23
2022-08-22T15:36:21.685Z,1.48
2022-08-22T15:38:51.735Z,1.23
2022-08-22T15:41:31.422Z,1.13
2022-08-22T15:44:10.255Z,1.20
2022-08-22T15:46:59.420Z,1.00
2022-08-22T15:49:35.444Z,3.20
2022-08-22T15:52:02.112Z,1.30
2022-08-22T15:54:53.143Z,1.20
2022-08-22T15:57:38.846Z,1.20
2022-08-22T16:00:27.874Z,1.70
2022-08-22T16:03:13.131Z,1.45
2022-08-22T16:05:58.831Z,1.42
2022-08-22T16:11:03.255Z,1.38
2022-08-22T16:13:29.967Z,1.38
2022-08-22T16:16:34.067Z,1.55
2022-08-22T16:19:03.995Z,1.60
2022-08-22T16:21:30.598Z,1.48
2022-08-22T16:23:57.101Z,1.27
2022-08-22T16:26:30.027Z,0.93
2022-08-22T16:29:03.336Z,1.15
2022-08-22T16:31:32.014Z,1.10
2022-08-22T16:34:20.952Z,1.30
2022-08-22T16:36:50.470Z,1.50
2022-08-22T16:39:23.323Z,1.30
2022-08-22T16:41:52.857Z,1.50
2022-08-22T16:44:28.503Z,1.27
2022-08-22T16:47:21.457Z,0.90
2022-08-22T16:49:51.151Z,0.82
2022-08-22T16:52:26.763Z,1.35
2022-08-22T16:55:24.653Z,1.20
2022-08-22T16:58:29.552Z,1.20
2022-08-22T17:01:25.556Z,1.13
2022-08-22T17:04:14.547Z,1.30
2022-08-22T17:06:50.218Z,1.10
2022-08-22T17:09:50.768Z,1.55
2022-08-22T17:12:55.324Z,1.20
2022-08-22T17:15:28.223Z,1.17
2022-08-22T17:18:25.785Z,1.40
2022-08-22T17:21:12.230Z,1.10
2022-08-22T17:24:31.622Z,1.30
2022-08-22T17:27:06.321Z,1.10
2022-08-22T17:30:06.975Z,1.00
2022-08-22T17:33:07.124Z,1.40
2022-08-22T17:35:44.205Z,1.30
2022-08-22T17:38:21.215Z,1.02
2022-08-22T17:41:06.394Z,1.13
2022-08-22T17:44:05.149Z,1.30
2022-08-22T17:46:46.941Z,1.35
2022-08-22T17:49:45.204Z,1.45
2022-08-22T17:52:15.844Z,2.10
2022-08-22T17:54:50.766Z,1.30
2022-08-22T17:57:38.378Z,1.55
2022-08-22T18:00:18.550Z,1.15
2022-08-22T18:02:54.849Z,1.42
2022-08-22T18:05:29.754Z,1.60
2022-08-22T18:09:13.404Z,1.60
2022-08-22T18:11:16.471Z,1.50
2022-08-22T18:13:58.139Z,1.33
2022-08-22T18:16:42.195Z,1.15
2022-08-22T18:19:23.869Z,1.30
2022-08-22T18:22:04.246Z,1.75
2022-08-22T18:24:51.729Z,1.20
2022-08-22T18:27:40.054Z,1.45
2022-08-22T18:30:21.817Z,1.45
2022-08-22T18:32:54.543Z,1.55
2022-08-22T18:35:40.241Z,1.45
2022-08-22T18:38:38.590Z,1.40
2022-08-22T18:41:24.004Z,1.25
2022-08-22T18:43:53.391Z,2.00
2022-08-22T18:46:38.189Z,1.20
2022-08-22T18:49:15.963Z,1.40
2022-08-22T18:51:43.300Z,1.63
2022-08-22T18:54:11.354Z,1.52
2022-08-22T18:56:53.899Z,1.17
2022-08-22T18:59:26.715Z,1.55
2022-08-22T19:02:15.413Z,2.28
2022-08-22T19:05:07.143Z,1.85
2022-08-22T19:08:23.101Z,2.00
2022-08-22T19:11:05.489Z,1.52
2022-08-22T19:13:41.512Z,1.42
2022-08-22T19:16:45.664Z,1.17
2022-08-22T19:19:21.224Z,1.70
2022-08-22T19:25:01.015Z,1.45
2022-08-22T19:27:31.191Z,1.55
2022-08-22T19:30:01.750Z,1.55
2022-08-22T19:32:46.707Z,1.90
2022-08-22T19:35:26.404Z,1.80
2022-08-22T19:38:02.497Z,1.55
2022-08-22T19:40:44.473Z,1.65
2022-08-22T19:43:42.039Z,1.55
2022-08-22T19:46:12.669Z,1.23
2022-08-22T19:48:52.484Z,1.30
2022-08-22T19:51:19.057Z,1.27
2022-08-22T19:53:51.498Z,1.33
2022-08-22T19:56:22.637Z,1.30
2022-08-22T19:59:21.291Z,1.50
2022-08-22T20:02:18.448Z,1.33
2022-08-22T20:05:23.045Z,1.30
2022-08-22T20:08:13.469Z,1.17
2022-08-22T20:10:49.483Z,1.20
2022-08-22T20:13:29.996Z,1.23
2022-08-22T20:16:17.973Z,1.15
2022-08-22T20:19:07.641Z,1.13
2022-08-22T20:21:54.717Z,1.25
2022-08-22T20:24:51.139Z,1.05
2022-08-22T20:27:27.551Z,1.02
2022-08-22T20:30:04.522Z,0.98
2022-08-22T20:32:37.819Z,0.95
2022-08-22T20:35:05.877Z,1.20
2022-08-22T20:38:05.466Z,1.20
2022-08-22T20:40:56.928Z,1.35
2022-08-22T20:43:28.431Z,1.20
2022-08-22T20:46:03.340Z,1.20
2022-08-22T20:48:37.511Z,1.20
2022-08-22T20:51:06.748Z,1.00
2022-08-22T20:53:34.161Z,1.33
2022-08-22T20:56:00.820Z,1.58
2022-08-22T20:58:35.712Z,1.25
2022-08-22T21:01:06.658Z,1.02
2022-08-22T21:03:44.477Z,1.08
2022-08-22T21:06:18.883Z,1.13
2022-08-22T21:08:47.319Z,1.03
2022-08-22T21:11:40.984Z,1.02
2022-08-22T21:14:26.297Z,1.10
2022-08-22T21:16:53.419Z,1.23
2022-08-22T21:19:25.311Z,1.27
2022-08-22T21:21:52.250Z,1.23
2022-08-22T21:24:18.992Z,1.02
2022-08-22T21:26:48.613Z,1.20
2022-08-22T21:29:15.122Z,1.23
2022-08-22T21:31:49.533Z,1.23
2022-08-22T21:34:22.897Z,1.37
2022-08-22T21:36:52.070Z,1.17
2022-08-22T21:39:24.836Z,1.20
2022-08-22T21:42:00.486Z,1.20
2022-08-22T21:44:33.122Z,1.52
2022-08-22T21:47:30.815Z,1.23
2022-08-22T21:50:13.369Z,1.45
2022-08-22T21:52:44.640Z,1.20
2022-08-22T21:55:23.907Z,1.55
2022-08-22T21:58:04.425Z,1.05
2022-08-22T22:00:48.681Z,1.17
2022-08-22T22:03:19.369Z,1.30
2022-08-22T22:05:49.095Z,0.93
2022-08-22T22:08:16.847Z,1.80
2022-08-22T22:10:46.182Z,1.15
2022-08-22T22:13:13.752Z,1.42
2022-08-22T22:15:46.061Z,1.48
2022-08-22T22:18:14.749Z,1.15
2022-08-22T22:20:43.047Z,1.30
2022-08-22T22:23:10.578Z,1.50
2022-08-22T22:25:42.151Z,1.00
2022-08-22T22:28:29.249Z,1.30
2022-08-22T22:30:55.925Z,1.20
2022-08-22T22:33:31.361Z,1.40
2022-08-22T22:38:26.715Z,0.90
2022-08-22T22:40:53.420Z,1.00
2022-08-22T22:43:20.076Z,1.50
2022-08-22T22:45:46.820Z,1.02
2022-08-22T22:48:23.830Z,1.25
2022-08-22T22:50:52.444Z,1.30
2022-08-22T22:53:20.052Z,1.45
2022-08-22T22:55:59.790Z,1.30
2022-08-22T22:58:27.926Z,1.27
2022-08-22T23:00:54.798Z,1.30
2022-08-22T23:03:22.570Z,1.17
2022-08-22T23:05:49.345Z,1.60
2022-08-22T23:08:16.032Z,1.50
2022-08-22T23:10:42.883Z,1.10
2022-08-22T23:13:09.511Z,1.58
2022-08-22T23:15:37.235Z,1.30
2022-08-22T23:18:04.275Z,1.27
2022-08-22T23:20:31.052Z,1.58
2022-08-22T23:22:59.380Z,1.40
2022-08-22T23:25:26.476Z,1.02
2022-08-22T23:27:53.579Z,1.30
2022-08-22T23:30:21.629Z,1.35
2022-08-22T23:32:48.385Z,1.35
2022-08-22T23:35:14.994Z,1.50
2022-08-22T23:37:41.646Z,1.27
2022-08-22T23:40:09.518Z,1.20
2022-08-22T23:42:36.476Z,1.33
2022-08-22T23:45:04.030Z,1.40
2022-08-22T23:47:30.770Z,1.50
2022-08-22T23:49:57.441Z,1.40
2022-08-22T23:52:24.730Z,1.33
2022-08-22T23:54:54.517Z,1.65
2022-08-22T23:57:27.684Z,1.60
2022-08-22T23:59:57.760Z,1.15
